sensor_id;sensor_type;location;lat;lon;timestamp;P1;durP1;ratioP1;P2;durP2;ratioP2
19599;SDS011;9947;57.722;12.012;2023-06-22T00:01:31;17.47;;;7.70;;
19599;SDS011;9947;57.722;12.012;2023-06-22T00:04:04;14.67;;;7.87;;
19599;SDS011;9947;57.722;12.012;2023-06-22T00:06:32;16.10;;;7.57;;
19599;SDS011;9947;57.722;12.012;2023-06-22T00:13:56;15.90;;;7.60;;
19599;SDS011;9947;57.722;12.012;2023-06-22T00:16:26;21.67;;;7.90;;
19599;SDS011;9947;57.722;12.012;2023-06-22T00:18:59;15.97;;;7.47;;
19599;SDS011;9947;57.722;12.012;2023-06-22T00:21:29;16.43;;;7.70;;
19599;SDS011;9947;57.722;12.012;2023-06-22T00:23:58;18.80;;;7.40;;
19599;SDS011;9947;57.722;12.012;2023-06-22T00:26:25;13.07;;;6.93;;
19599;SDS011;9947;57.722;12.012;2023-06-22T00:28:52;12.80;;;6.70;;
19599;SDS011;9947;57.722;12.012;2023-06-22T00:31:23;16.23;;;7.63;;
19599;SDS011;9947;57.722;12.012;2023-06-22T00:33:52;14.33;;;7.43;;
19599;SDS011;9947;57.722;12.012;2023-06-22T00:36:20;14.10;;;6.90;;
19599;SDS011;9947;57.722;12.012;2023-06-22T00:38:55;13.90;;;6.50;;
19599;SDS011;9947;57.722;12.012;2023-06-22T00:41:27;13.60;;;7.20;;
19599;SDS011;9947;57.722;12.012;2023-06-22T00:43:57;16.60;;;7.03;;
19599;SDS011;9947;57.722;12.012;2023-06-22T00:46:25;16.33;;;7.00;;
19599;SDS011;9947;57.722;12.012;2023-06-22T00:48:53;14.03;;;6.90;;
19599;SDS011;9947;57.722;12.012;2023-06-22T00:51:25;16.33;;;7.23;;
19599;SDS011;9947;57.722;12.012;2023-06-22T00:53:53;15.10;;;6.90;;
19599;SDS011;9947;57.722;12.012;2023-06-22T00:56:23;18.60;;;8.10;;
19599;SDS011;9947;57.722;12.012;2023-06-22T00:58:51;17.67;;;7.73;;
19599;SDS011;9947;57.722;12.012;2023-06-22T01:01:19;13.60;;;7.17;;
19599;SDS011;9947;57.722;12.012;2023-06-22T01:03:48;15.53;;;7.33;;
19599;SDS011;9947;57.722;12.012;2023-06-22T01:06:19;15.07;;;7.70;;
19599;SDS011;9947;57.722;12.012;2023-06-22T01:09:00;18.53;;;7.20;;
19599;SDS011;9947;57.722;12.012;2023-06-22T01:11:32;19.50;;;7.40;;
19599;SDS011;9947;57.722;12.012;2023-06-22T01:16:30;16.65;;;6.97;;
19599;SDS011;9947;57.722;12.012;2023-06-22T01:19:05;13.13;;;6.60;;
19599;SDS011;9947;57.722;12.012;2023-06-22T01:21:44;17.60;;;7.30;;
19599;SDS011;9947;57.722;12.012;2023-06-22T01:26:52;19.47;;;6.47;;
19599;SDS011;9947;57.722;12.012;2023-06-22T01:29:27;13.50;;;6.23;;
19599;SDS011;9947;57.722;12.012;2023-06-22T01:31:58;12.10;;;7.37;;
19599;SDS011;9947;57.722;12.012;2023-06-22T01:34:29;15.87;;;6.53;;
19599;SDS011;9947;57.722;12.012;2023-06-22T01:39:26;14.23;;;7.23;;
19599;SDS011;9947;57.722;12.012;2023-06-22T01:41:55;13.03;;;6.13;;
19599;SDS011;9947;57.722;12.012;2023-06-22T01:44:29;19.10;;;7.23;;
19599;SDS011;9947;57.722;12.012;2023-06-22T01:46:59;15.37;;;6.33;;
19599;SDS011;9947;57.722;12.012;2023-06-22T01:49:31;13.80;;;6.57;;
19599;SDS011;9947;57.722;12.012;2023-06-22T01:51:59;20.23;;;7.07;;
19599;SDS011;9947;57.722;12.012;2023-06-22T01:54:29;17.63;;;6.63;;
19599;SDS011;9947;57.722;12.012;2023-06-22T01:56:58;16.43;;;7.50;;
19599;SDS011;9947;57.722;12.012;2023-06-22T01:59:39;16.37;;;7.40;;
19599;SDS011;9947;57.722;12.012;2023-06-22T02:02:19;18.03;;;7.07;;
19599;SDS011;9947;57.722;12.012;2023-06-22T02:04:54;18.17;;;7.80;;
19599;SDS011;9947;57.722;12.012;2023-06-22T02:07:28;16.47;;;6.63;;
19599;SDS011;9947;57.722;12.012;2023-06-22T02:10:00;16.83;;;7.00;;
19599;SDS011;9947;57.722;12.012;2023-06-22T02:12:32;14.47;;;7.13;;
19599;SDS011;9947;57.722;12.012;2023-06-22T02:17:37;16.37;;;7.30;;
19599;SDS011;9947;57.722;12.012;2023-06-22T02:22:30;9.82;;;6.55;;
19599;SDS011;9947;57.722;12.012;2023-06-22T02:27:29;13.15;;;5.97;;
19599;SDS011;9947;57.722;12.012;2023-06-22T02:29:57;18.20;;;7.07;;
19599;SDS011;9947;57.722;12.012;2023-06-22T02:32:25;19.20;;;6.20;;
19599;SDS011;9947;57.722;12.012;2023-06-22T02:34:55;14.00;;;6.30;;
19599;SDS011;9947;57.722;12.012;2023-06-22T02:37:25;9.50;;;5.80;;
19599;SDS011;9947;57.722;12.012;2023-06-22T02:39:58;16.37;;;5.97;;
19599;SDS011;9947;57.722;12.012;2023-06-22T02:42:28;18.70;;;7.10;;
19599;SDS011;9947;57.722;12.012;2023-06-22T02:44:55;16.13;;;6.87;;
19599;SDS011;9947;57.722;12.012;2023-06-22T02:47:23;16.20;;;6.50;;
19599;SDS011;9947;57.722;12.012;2023-06-22T02:49:55;16.83;;;6.57;;
19599;SDS011;9947;57.722;12.012;2023-06-22T02:52:24;17.87;;;6.10;;
19599;SDS011;9947;57.722;12.012;2023-06-22T02:54:52;16.70;;;5.90;;
19599;SDS011;9947;57.722;12.012;2023-06-22T02:57:22;19.57;;;6.77;;
19599;SDS011;9947;57.722;12.012;2023-06-22T02:59:49;17.23;;;6.87;;
19599;SDS011;9947;57.722;12.012;2023-06-22T03:02:16;13.33;;;6.23;;
19599;SDS011;9947;57.722;12.012;2023-06-22T03:04:47;17.70;;;7.03;;
19599;SDS011;9947;57.722;12.012;2023-06-22T03:07:21;16.63;;;6.37;;
19599;SDS011;9947;57.722;12.012;2023-06-22T03:09:50;21.50;;;7.20;;
19599;SDS011;9947;57.722;12.012;2023-06-22T03:12:19;16.10;;;6.60;;
19599;SDS011;9947;57.722;12.012;2023-06-22T03:14:48;13.63;;;6.10;;
19599;SDS011;9947;57.722;12.012;2023-06-22T03:17:17;16.60;;;6.37;;
19599;SDS011;9947;57.722;12.012;2023-06-22T03:19:44;15.53;;;7.13;;
19599;SDS011;9947;57.722;12.012;2023-06-22T03:22:12;15.33;;;6.47;;
19599;SDS011;9947;57.722;12.012;2023-06-22T03:24:41;14.67;;;6.43;;
19599;SDS011;9947;57.722;12.012;2023-06-22T03:27:08;15.77;;;6.97;;
19599;SDS011;9947;57.722;12.012;2023-06-22T03:29:38;17.80;;;7.20;;
19599;SDS011;9947;57.722;12.012;2023-06-22T03:32:05;14.43;;;6.23;;
19599;SDS011;9947;57.722;12.012;2023-06-22T03:34:35;14.93;;;6.67;;
19599;SDS011;9947;57.722;12.012;2023-06-22T03:37:03;17.40;;;6.40;;
19599;SDS011;9947;57.722;12.012;2023-06-22T03:39:32;14.03;;;6.80;;
19599;SDS011;9947;57.722;12.012;2023-06-22T03:42:05;22.73;;;6.53;;
19599;SDS011;9947;57.722;12.012;2023-06-22T03:44:33;20.07;;;7.23;;
19599;SDS011;9947;57.722;12.012;2023-06-22T03:47:01;19.30;;;6.73;;
19599;SDS011;9947;57.722;12.012;2023-06-22T03:49:29;17.87;;;6.40;;
19599;SDS011;9947;57.722;12.012;2023-06-22T03:51:58;16.87;;;6.90;;
19599;SDS011;9947;57.722;12.012;2023-06-22T03:54:26;12.83;;;6.33;;
19599;SDS011;9947;57.722;12.012;2023-06-22T03:56:54;19.57;;;6.27;;
19599;SDS011;9947;57.722;12.012;2023-06-22T03:59:26;17.43;;;6.33;;
19599;SDS011;9947;57.722;12.012;2023-06-22T04:01:53;18.73;;;6.07;;
19599;SDS011;9947;57.722;12.012;2023-06-22T04:04:21;12.20;;;6.43;;
19599;SDS011;9947;57.722;12.012;2023-06-22T04:06:48;24.50;;;6.53;;
19599;SDS011;9947;57.722;12.012;2023-06-22T04:09:16;17.63;;;6.67;;
19599;SDS011;9947;57.722;12.012;2023-06-22T04:11:47;17.33;;;6.20;;
19599;SDS011;9947;57.722;12.012;2023-06-22T04:14:17;12.20;;;5.70;;
19599;SDS011;9947;57.722;12.012;2023-06-22T04:16:48;12.30;;;6.53;;
19599;SDS011;9947;57.722;12.012;2023-06-22T04:19:17;13.60;;;6.47;;
19599;SDS011;9947;57.722;12.012;2023-06-22T04:21:47;13.30;;;6.40;;
19599;SDS011;9947;57.722;12.012;2023-06-22T04:24:18;13.73;;;6.80;;
19599;SDS011;9947;57.722;12.012;2023-06-22T04:26:46;18.10;;;7.10;;
19599;SDS011;9947;57.722;12.012;2023-06-22T04:29:30;16.13;;;6.73;;
19599;SDS011;9947;57.722;12.012;2023-06-22T04:32:03;17.03;;;6.47;;
19599;SDS011;9947;57.722;12.012;2023-06-22T04:34:33;15.93;;;6.53;;
19599;SDS011;9947;57.722;12.012;2023-06-22T04:37:11;11.07;;;5.97;;
19599;SDS011;9947;57.722;12.012;2023-06-22T04:39:41;16.10;;;6.40;;
19599;SDS011;9947;57.722;12.012;2023-06-22T04:42:11;17.73;;;6.27;;
19599;SDS011;9947;57.722;12.012;2023-06-22T04:44:39;13.07;;;6.07;;
19599;SDS011;9947;57.722;12.012;2023-06-22T04:47:11;11.33;;;6.10;;
19599;SDS011;9947;57.722;12.012;2023-06-22T04:49:39;17.03;;;6.63;;
19599;SDS011;9947;57.722;12.012;2023-06-22T04:52:09;17.03;;;6.83;;
19599;SDS011;9947;57.722;12.012;2023-06-22T04:54:38;17.97;;;6.23;;
19599;SDS011;9947;57.722;12.012;2023-06-22T04:57:13;13.70;;;6.30;;
19599;SDS011;9947;57.722;12.012;2023-06-22T04:59:41;16.77;;;6.50;;
19599;SDS011;9947;57.722;12.012;2023-06-22T05:02:10;16.70;;;6.73;;
19599;SDS011;9947;57.722;12.012;2023-06-22T05:04:39;13.80;;;6.60;;
19599;SDS011;9947;57.722;12.012;2023-06-22T05:07:06;20.83;;;6.90;;
19599;SDS011;9947;57.722;12.012;2023-06-22T05:09:37;15.53;;;6.37;;
19599;SDS011;9947;57.722;12.012;2023-06-22T05:12:07;20.37;;;8.47;;
19599;SDS011;9947;57.722;12.012;2023-06-22T05:14:37;14.43;;;6.57;;
19599;SDS011;9947;57.722;12.012;2023-06-22T05:17:06;15.30;;;6.13;;
19599;SDS011;9947;57.722;12.012;2023-06-22T05:19:44;15.97;;;6.53;;
19599;SDS011;9947;57.722;12.012;2023-06-22T05:22:13;13.17;;;6.90;;
19599;SDS011;9947;57.722;12.012;2023-06-22T05:24:45;16.57;;;6.37;;
19599;SDS011;9947;57.722;12.012;2023-06-22T05:27:17;14.33;;;6.93;;
19599;SDS011;9947;57.722;12.012;2023-06-22T05:29:47;13.20;;;6.47;;
19599;SDS011;9947;57.722;12.012;2023-06-22T05:32:19;16.57;;;7.10;;
19599;SDS011;9947;57.722;12.012;2023-06-22T05:34:54;16.47;;;6.40;;
19599;SDS011;9947;57.722;12.012;2023-06-22T05:37:23;17.10;;;6.60;;
19599;SDS011;9947;57.722;12.012;2023-06-22T05:39:54;17.13;;;6.20;;
19599;SDS011;9947;57.722;12.012;2023-06-22T05:42:28;16.10;;;7.20;;
19599;SDS011;9947;57.722;12.012;2023-06-22T05:44:59;14.57;;;6.23;;
19599;SDS011;9947;57.722;12.012;2023-06-22T05:47:26;14.37;;;6.03;;
19599;SDS011;9947;57.722;12.012;2023-06-22T05:49:57;19.20;;;6.83;;
19599;SDS011;9947;57.722;12.012;2023-06-22T05:52:24;14.33;;;6.30;;
19599;SDS011;9947;57.722;12.012;2023-06-22T05:54:53;14.83;;;6.30;;
19599;SDS011;9947;57.722;12.012;2023-06-22T05:57:21;13.23;;;6.60;;
19599;SDS011;9947;57.722;12.012;2023-06-22T05:59:57;13.20;;;5.83;;
19599;SDS011;9947;57.722;12.012;2023-06-22T06:02:24;10.87;;;5.27;;
19599;SDS011;9947;57.722;12.012;2023-06-22T06:04:54;13.07;;;6.20;;
19599;SDS011;9947;57.722;12.012;2023-06-22T06:07:29;13.37;;;5.43;;
19599;SDS011;9947;57.722;12.012;2023-06-22T06:09:59;11.07;;;5.53;;
19599;SDS011;9947;57.722;12.012;2023-06-22T06:12:30;14.90;;;5.80;;
19599;SDS011;9947;57.722;12.012;2023-06-22T06:14:58;11.63;;;6.20;;
19599;SDS011;9947;57.722;12.012;2023-06-22T06:17:25;16.60;;;5.83;;
19599;SDS011;9947;57.722;12.012;2023-06-22T06:19:52;12.77;;;6.07;;
19599;SDS011;9947;57.722;12.012;2023-06-22T06:22:22;14.07;;;5.20;;
19599;SDS011;9947;57.722;12.012;2023-06-22T06:24:50;12.87;;;5.80;;
19599;SDS011;9947;57.722;12.012;2023-06-22T06:27:19;12.03;;;6.00;;
19599;SDS011;9947;57.722;12.012;2023-06-22T06:29:47;16.85;;;5.53;;
19599;SDS011;9947;57.722;12.012;2023-06-22T06:32:19;10.97;;;5.23;;
19599;SDS011;9947;57.722;12.012;2023-06-22T06:34:47;14.93;;;5.45;;
19599;SDS011;9947;57.722;12.012;2023-06-22T06:37:16;13.07;;;5.28;;
19599;SDS011;9947;57.722;12.012;2023-06-22T06:39:45;16.58;;;5.75;;
19599;SDS011;9947;57.722;12.012;2023-06-22T06:42:14;18.33;;;5.80;;
19599;SDS011;9947;57.722;12.012;2023-06-22T06:44:44;12.57;;;5.60;;
19599;SDS011;9947;57.722;12.012;2023-06-22T06:47:11;13.25;;;5.25;;
19599;SDS011;9947;57.722;12.012;2023-06-22T06:49:38;13.13;;;5.30;;
19599;SDS011;9947;57.722;12.012;2023-06-22T06:52:10;14.18;;;5.07;;
19599;SDS011;9947;57.722;12.012;2023-06-22T06:54:40;13.52;;;4.97;;
19599;SDS011;9947;57.722;12.012;2023-06-22T06:57:14;12.50;;;5.20;;
19599;SDS011;9947;57.722;12.012;2023-06-22T06:59:41;15.98;;;5.63;;
19599;SDS011;9947;57.722;12.012;2023-06-22T07:02:11;15.45;;;5.47;;
19599;SDS011;9947;57.722;12.012;2023-06-22T07:04:40;12.32;;;5.43;;
19599;SDS011;9947;57.722;12.012;2023-06-22T07:07:07;14.52;;;5.18;;
19599;SDS011;9947;57.722;12.012;2023-06-22T07:09:34;17.00;;;5.00;;
19599;SDS011;9947;57.722;12.012;2023-06-22T07:12:03;21.45;;;5.72;;
19599;SDS011;9947;57.722;12.012;2023-06-22T07:14:33;10.90;;;5.03;;
19599;SDS011;9947;57.722;12.012;2023-06-22T07:17:02;10.30;;;5.32;;
19599;SDS011;9947;57.722;12.012;2023-06-22T07:19:33;11.60;;;4.65;;
19599;SDS011;9947;57.722;12.012;2023-06-22T07:22:04;12.70;;;4.80;;
19599;SDS011;9947;57.722;12.012;2023-06-22T07:24:35;12.43;;;5.53;;
19599;SDS011;9947;57.722;12.012;2023-06-22T07:27:04;11.98;;;5.25;;
19599;SDS011;9947;57.722;12.012;2023-06-22T07:29:35;16.92;;;5.47;;
19599;SDS011;9947;57.722;12.012;2023-06-22T07:32:05;8.68;;;4.80;;
19599;SDS011;9947;57.722;12.012;2023-06-22T07:34:34;10.55;;;5.00;;
19599;SDS011;9947;57.722;12.012;2023-06-22T07:37:04;11.60;;;5.10;;
19599;SDS011;9947;57.722;12.012;2023-06-22T07:39:35;17.27;;;5.82;;
19599;SDS011;9947;57.722;12.012;2023-06-22T07:42:04;11.73;;;5.18;;
19599;SDS011;9947;57.722;12.012;2023-06-22T07:44:35;13.60;;;5.35;;
19599;SDS011;9947;57.722;12.012;2023-06-22T07:47:03;8.82;;;4.85;;
19599;SDS011;9947;57.722;12.012;2023-06-22T07:49:32;13.45;;;5.40;;
19599;SDS011;9947;57.722;12.012;2023-06-22T07:52:04;13.10;;;5.65;;
19599;SDS011;9947;57.722;12.012;2023-06-22T07:54:34;13.60;;;5.53;;
19599;SDS011;9947;57.722;12.012;2023-06-22T07:57:02;12.68;;;5.47;;
19599;SDS011;9947;57.722;12.012;2023-06-22T07:59:32;19.13;;;5.68;;
19599;SDS011;9947;57.722;12.012;2023-06-22T08:02:03;13.13;;;5.35;;
19599;SDS011;9947;57.722;12.012;2023-06-22T08:04:31;12.55;;;5.63;;
19599;SDS011;9947;57.722;12.012;2023-06-22T08:06:59;14.85;;;5.15;;
19599;SDS011;9947;57.722;12.012;2023-06-22T08:09:27;9.88;;;5.13;;
19599;SDS011;9947;57.722;12.012;2023-06-22T08:12:01;11.85;;;5.28;;
19599;SDS011;9947;57.722;12.012;2023-06-22T08:14:30;14.13;;;5.15;;
19599;SDS011;9947;57.722;12.012;2023-06-22T08:17:04;10.32;;;5.28;;
19599;SDS011;9947;57.722;12.012;2023-06-22T08:19:32;9.80;;;5.30;;
19599;SDS011;9947;57.722;12.012;2023-06-22T08:22:02;9.88;;;4.75;;
19599;SDS011;9947;57.722;12.012;2023-06-22T08:24:30;11.50;;;5.05;;
19599;SDS011;9947;57.722;12.012;2023-06-22T08:27:01;10.38;;;5.47;;
19599;SDS011;9947;57.722;12.012;2023-06-22T08:29:46;11.27;;;5.03;;
19599;SDS011;9947;57.722;12.012;2023-06-22T08:32:16;8.05;;;4.60;;
19599;SDS011;9947;57.722;12.012;2023-06-22T08:34:47;12.23;;;5.13;;
19599;SDS011;9947;57.722;12.012;2023-06-22T08:37:17;16.42;;;4.95;;
19599;SDS011;9947;57.722;12.012;2023-06-22T08:39:47;10.13;;;4.32;;
19599;SDS011;9947;57.722;12.012;2023-06-22T08:42:14;8.23;;;4.70;;
19599;SDS011;9947;57.722;12.012;2023-06-22T08:44:42;10.88;;;5.07;;
19599;SDS011;9947;57.722;12.012;2023-06-22T08:47:13;11.10;;;5.35;;
19599;SDS011;9947;57.722;12.012;2023-06-22T08:49:50;11.40;;;5.45;;
19599;SDS011;9947;57.722;12.012;2023-06-22T08:52:17;10.00;;;4.78;;
19599;SDS011;9947;57.722;12.012;2023-06-22T08:54:46;8.88;;;4.90;;
19599;SDS011;9947;57.722;12.012;2023-06-22T08:57:13;14.45;;;4.60;;
19599;SDS011;9947;57.722;12.012;2023-06-22T08:59:42;9.75;;;4.82;;
19599;SDS011;9947;57.722;12.012;2023-06-22T09:02:10;9.18;;;4.60;;
19599;SDS011;9947;57.722;12.012;2023-06-22T09:04:37;10.90;;;4.93;;
19599;SDS011;9947;57.722;12.012;2023-06-22T09:07:09;9.00;;;4.75;;
19599;SDS011;9947;57.722;12.012;2023-06-22T09:09:38;9.48;;;4.38;;
19599;SDS011;9947;57.722;12.012;2023-06-22T09:12:06;8.25;;;4.60;;
19599;SDS011;9947;57.722;12.012;2023-06-22T09:14:35;9.80;;;4.72;;
19599;SDS011;9947;57.722;12.012;2023-06-22T09:17:04;11.57;;;4.53;;
19599;SDS011;9947;57.722;12.012;2023-06-22T09:19:32;12.45;;;4.78;;
19599;SDS011;9947;57.722;12.012;2023-06-22T09:21:59;8.15;;;4.20;;
19599;SDS011;9947;57.722;12.012;2023-06-22T09:27:18;10.15;;;4.18;;
19599;SDS011;9947;57.722;12.012;2023-06-22T09:29:47;10.98;;;4.53;;
19599;SDS011;9947;57.722;12.012;2023-06-22T09:32:15;12.65;;;4.85;;
19599;SDS011;9947;57.722;12.012;2023-06-22T09:34:41;8.95;;;4.03;;
19599;SDS011;9947;57.722;12.012;2023-06-22T09:37:09;8.40;;;4.20;;
19599;SDS011;9947;57.722;12.012;2023-06-22T09:39:42;10.00;;;4.07;;
19599;SDS011;9947;57.722;12.012;2023-06-22T09:42:15;7.97;;;4.13;;
19599;SDS011;9947;57.722;12.012;2023-06-22T09:44:46;8.27;;;4.20;;
19599;SDS011;9947;57.722;12.012;2023-06-22T09:47:15;10.15;;;4.30;;
19599;SDS011;9947;57.722;12.012;2023-06-22T09:49:46;8.88;;;4.15;;
19599;SDS011;9947;57.722;12.012;2023-06-22T09:52:15;14.75;;;4.97;;
19599;SDS011;9947;57.722;12.012;2023-06-22T09:54:43;9.55;;;4.43;;
19599;SDS011;9947;57.722;12.012;2023-06-22T09:57:11;12.52;;;4.45;;
19599;SDS011;9947;57.722;12.012;2023-06-22T09:59:50;8.85;;;4.00;;
19599;SDS011;9947;57.722;12.012;2023-06-22T10:02:18;9.68;;;4.00;;
19599;SDS011;9947;57.722;12.012;2023-06-22T10:04:47;8.50;;;4.13;;
19599;SDS011;9947;57.722;12.012;2023-06-22T10:07:14;13.18;;;4.50;;
19599;SDS011;9947;57.722;12.012;2023-06-22T10:09:42;10.27;;;4.53;;
19599;SDS011;9947;57.722;12.012;2023-06-22T10:12:15;11.02;;;4.78;;
19599;SDS011;9947;57.722;12.012;2023-06-22T10:14:44;12.63;;;4.78;;
19599;SDS011;9947;57.722;12.012;2023-06-22T10:17:11;11.27;;;4.57;;
19599;SDS011;9947;57.722;12.012;2023-06-22T10:19:40;9.45;;;5.05;;
19599;SDS011;9947;57.722;12.012;2023-06-22T10:22:13;8.18;;;4.63;;
19599;SDS011;9947;57.722;12.012;2023-06-22T10:24:40;11.20;;;5.05;;
19599;SDS011;9947;57.722;12.012;2023-06-22T10:27:10;8.90;;;4.70;;
19599;SDS011;9947;57.722;12.012;2023-06-22T10:29:37;8.95;;;5.10;;
19599;SDS011;9947;57.722;12.012;2023-06-22T10:32:10;8.25;;;4.97;;
19599;SDS011;9947;57.722;12.012;2023-06-22T10:34:43;10.55;;;4.78;;
19599;SDS011;9947;57.722;12.012;2023-06-22T10:37:13;9.00;;;5.03;;
19599;SDS011;9947;57.722;12.012;2023-06-22T10:39:43;9.25;;;4.68;;
19599;SDS011;9947;57.722;12.012;2023-06-22T10:42:13;11.02;;;4.65;;
19599;SDS011;9947;57.722;12.012;2023-06-22T10:44:43;8.32;;;4.45;;
19599;SDS011;9947;57.722;12.012;2023-06-22T10:47:13;6.32;;;4.85;;
19599;SDS011;9947;57.722;12.012;2023-06-22T10:49:40;7.30;;;5.05;;
19599;SDS011;9947;57.722;12.012;2023-06-22T10:52:11;15.77;;;5.78;;
19599;SDS011;9947;57.722;12.012;2023-06-22T10:54:39;11.13;;;5.43;;
19599;SDS011;9947;57.722;12.012;2023-06-22T10:57:07;14.68;;;5.88;;
19599;SDS011;9947;57.722;12.012;2023-06-22T10:59:34;16.73;;;6.75;;
19599;SDS011;9947;57.722;12.012;2023-06-22T11:02:00;12.25;;;5.80;;
19599;SDS011;9947;57.722;12.012;2023-06-22T11:04:29;11.80;;;5.28;;
19599;SDS011;9947;57.722;12.012;2023-06-22T11:06:55;12.73;;;6.05;;
19599;SDS011;9947;57.722;12.012;2023-06-22T11:09:26;11.90;;;5.40;;
19599;SDS011;9947;57.722;12.012;2023-06-22T11:11:53;11.10;;;5.22;;
19599;SDS011;9947;57.722;12.012;2023-06-22T11:14:24;12.02;;;5.78;;
19599;SDS011;9947;57.722;12.012;2023-06-22T11:16:51;9.25;;;4.90;;
19599;SDS011;9947;57.722;12.012;2023-06-22T11:19:19;10.60;;;5.07;;
19599;SDS011;9947;57.722;12.012;2023-06-22T11:21:48;10.20;;;5.63;;
19599;SDS011;9947;57.722;12.012;2023-06-22T11:24:17;13.43;;;5.85;;
19599;SDS011;9947;57.722;12.012;2023-06-22T11:26:46;8.65;;;5.30;;
19599;SDS011;9947;57.722;12.012;2023-06-22T11:29:13;13.40;;;6.55;;
19599;SDS011;9947;57.722;12.012;2023-06-22T11:31:40;13.77;;;5.70;;
19599;SDS011;9947;57.722;12.012;2023-06-22T11:34:08;10.98;;;5.43;;
19599;SDS011;9947;57.722;12.012;2023-06-22T11:36:37;9.95;;;5.75;;
19599;SDS011;9947;57.722;12.012;2023-06-22T11:39:07;9.95;;;5.60;;
19599;SDS011;9947;57.722;12.012;2023-06-22T11:41:37;13.13;;;6.25;;
19599;SDS011;9947;57.722;12.012;2023-06-22T11:44:05;12.18;;;5.80;;
19599;SDS011;9947;57.722;12.012;2023-06-22T11:46:33;8.80;;;5.72;;
19599;SDS011;9947;57.722;12.012;2023-06-22T11:49:01;12.05;;;5.65;;
19599;SDS011;9947;57.722;12.012;2023-06-22T11:51:29;8.15;;;5.20;;
19599;SDS011;9947;57.722;12.012;2023-06-22T11:53:56;10.68;;;5.75;;
19599;SDS011;9947;57.722;12.012;2023-06-22T11:56:33;10.80;;;5.93;;
19599;SDS011;9947;57.722;12.012;2023-06-22T11:59:03;11.73;;;5.75;;
19599;SDS011;9947;57.722;12.012;2023-06-22T12:01:30;8.93;;;5.30;;
19599;SDS011;9947;57.722;12.012;2023-06-22T12:03:58;9.30;;;5.28;;
19599;SDS011;9947;57.722;12.012;2023-06-22T12:06:25;13.52;;;5.97;;
19599;SDS011;9947;57.722;12.012;2023-06-22T12:08:52;13.70;;;5.32;;
19599;SDS011;9947;57.722;12.012;2023-06-22T12:11:20;10.93;;;5.90;;
19599;SDS011;9947;57.722;12.012;2023-06-22T12:13:50;9.68;;;5.45;;
19599;SDS011;9947;57.722;12.012;2023-06-22T12:16:18;12.98;;;6.25;;
19599;SDS011;9947;57.722;12.012;2023-06-22T12:18:47;8.63;;;5.72;;
19599;SDS011;9947;57.722;12.012;2023-06-22T12:21:14;9.13;;;5.53;;
19599;SDS011;9947;57.722;12.012;2023-06-22T12:23:41;9.77;;;5.68;;
19599;SDS011;9947;57.722;12.012;2023-06-22T12:26:08;8.95;;;5.53;;
19599;SDS011;9947;57.722;12.012;2023-06-22T12:28:36;10.98;;;5.70;;
19599;SDS011;9947;57.722;12.012;2023-06-22T12:31:07;12.70;;;5.70;;
19599;SDS011;9947;57.722;12.012;2023-06-22T12:33:34;10.30;;;5.22;;
19599;SDS011;9947;57.722;12.012;2023-06-22T12:36:01;11.77;;;5.20;;
19599;SDS011;9947;57.722;12.012;2023-06-22T12:38:30;8.10;;;5.50;;
19599;SDS011;9947;57.722;12.012;2023-06-22T12:40:57;9.13;;;5.32;;
19599;SDS011;9947;57.722;12.012;2023-06-22T12:43:24;9.60;;;5.65;;
19599;SDS011;9947;57.722;12.012;2023-06-22T12:45:51;11.10;;;5.82;;
19599;SDS011;9947;57.722;12.012;2023-06-22T12:48:21;10.82;;;6.05;;
19599;SDS011;9947;57.722;12.012;2023-06-22T12:50:50;12.45;;;6.07;;
19599;SDS011;9947;57.722;12.012;2023-06-22T12:53:17;9.32;;;5.75;;
19599;SDS011;9947;57.722;12.012;2023-06-22T12:55:45;10.10;;;6.00;;
19599;SDS011;9947;57.722;12.012;2023-06-22T12:58:12;10.82;;;5.68;;
19599;SDS011;9947;57.722;12.012;2023-06-22T13:00:39;10.35;;;5.38;;
19599;SDS011;9947;57.722;12.012;2023-06-22T13:03:06;11.40;;;5.30;;
19599;SDS011;9947;57.722;12.012;2023-06-22T13:05:43;10.65;;;5.53;;
19599;SDS011;9947;57.722;12.012;2023-06-22T13:08:10;9.85;;;5.85;;
19599;SDS011;9947;57.722;12.012;2023-06-22T13:10:39;10.80;;;5.00;;
19599;SDS011;9947;57.722;12.012;2023-06-22T13:13:07;8.57;;;5.63;;
19599;SDS011;9947;57.722;12.012;2023-06-22T13:15:35;10.88;;;4.88;;
19599;SDS011;9947;57.722;12.012;2023-06-22T13:18:02;9.45;;;5.70;;
19599;SDS011;9947;57.722;12.012;2023-06-22T13:20:31;11.95;;;5.70;;
19599;SDS011;9947;57.722;12.012;2023-06-22T13:23:02;7.07;;;4.95;;
19599;SDS011;9947;57.722;12.012;2023-06-22T13:25:28;9.63;;;5.20;;
19599;SDS011;9947;57.722;12.012;2023-06-22T13:27:56;11.95;;;4.93;;
19599;SDS011;9947;57.722;12.012;2023-06-22T13:30:25;11.80;;;5.50;;
19599;SDS011;9947;57.722;12.012;2023-06-22T13:32:52;9.68;;;5.55;;
19599;SDS011;9947;57.722;12.012;2023-06-22T13:35:20;7.60;;;5.63;;
19599;SDS011;9947;57.722;12.012;2023-06-22T13:37:48;16.35;;;5.93;;
19599;SDS011;9947;57.722;12.012;2023-06-22T13:40:21;9.50;;;5.45;;
19599;SDS011;9947;57.722;12.012;2023-06-22T13:42:52;11.32;;;6.30;;
19599;SDS011;9947;57.722;12.012;2023-06-22T13:45:19;11.55;;;5.68;;
19599;SDS011;9947;57.722;12.012;2023-06-22T13:47:46;10.52;;;5.65;;
19599;SDS011;9947;57.722;12.012;2023-06-22T13:50:13;10.52;;;5.95;;
19599;SDS011;9947;57.722;12.012;2023-06-22T13:52:40;8.25;;;6.25;;
19599;SDS011;9947;57.722;12.012;2023-06-22T13:55:13;13.35;;;6.65;;
19599;SDS011;9947;57.722;12.012;2023-06-22T13:57:42;17.77;;;6.03;;
19599;SDS011;9947;57.722;12.012;2023-06-22T14:00:10;16.10;;;5.70;;
19599;SDS011;9947;57.722;12.012;2023-06-22T14:02:39;10.40;;;6.20;;
19599;SDS011;9947;57.722;12.012;2023-06-22T14:05:07;10.55;;;6.00;;
19599;SDS011;9947;57.722;12.012;2023-06-22T14:07:34;8.25;;;5.63;;
19599;SDS011;9947;57.722;12.012;2023-06-22T14:10:03;12.57;;;6.38;;
19599;SDS011;9947;57.722;12.012;2023-06-22T14:12:34;10.75;;;5.45;;
19599;SDS011;9947;57.722;12.012;2023-06-22T14:15:05;11.88;;;6.28;;
19599;SDS011;9947;57.722;12.012;2023-06-22T14:17:35;13.15;;;6.22;;
19599;SDS011;9947;57.722;12.012;2023-06-22T14:20:03;9.70;;;5.82;;
19599;SDS011;9947;57.722;12.012;2023-06-22T14:22:30;12.43;;;6.05;;
19599;SDS011;9947;57.722;12.012;2023-06-22T14:25:02;11.27;;;6.13;;
19599;SDS011;9947;57.722;12.012;2023-06-22T14:27:31;10.98;;;5.97;;
19599;SDS011;9947;57.722;12.012;2023-06-22T14:29:58;13.88;;;6.13;;
19599;SDS011;9947;57.722;12.012;2023-06-22T14:32:27;10.32;;;5.20;;
19599;SDS011;9947;57.722;12.012;2023-06-22T14:34:57;8.85;;;5.10;;
19599;SDS011;9947;57.722;12.012;2023-06-22T14:37:26;9.98;;;5.65;;
19599;SDS011;9947;57.722;12.012;2023-06-22T14:39:54;13.45;;;5.65;;
19599;SDS011;9947;57.722;12.012;2023-06-22T14:42:24;8.95;;;5.43;;
19599;SDS011;9947;57.722;12.012;2023-06-22T14:44:53;10.43;;;5.32;;
19599;SDS011;9947;57.722;12.012;2023-06-22T14:47:20;9.60;;;5.50;;
19599;SDS011;9947;57.722;12.012;2023-06-22T14:49:49;8.25;;;4.82;;
19599;SDS011;9947;57.722;12.012;2023-06-22T14:52:16;8.98;;;4.70;;
19599;SDS011;9947;57.722;12.012;2023-06-22T14:54:43;9.27;;;4.70;;
19599;SDS011;9947;57.722;12.012;2023-06-22T14:57:12;8.50;;;5.00;;
19599;SDS011;9947;57.722;12.012;2023-06-22T14:59:44;12.40;;;4.47;;
19599;SDS011;9947;57.722;12.012;2023-06-22T15:02:11;7.43;;;4.60;;
19599;SDS011;9947;57.722;12.012;2023-06-22T15:04:41;7.95;;;4.47;;
19599;SDS011;9947;57.722;12.012;2023-06-22T15:07:10;6.40;;;3.83;;
19599;SDS011;9947;57.722;12.012;2023-06-22T15:09:37;5.82;;;4.45;;
19599;SDS011;9947;57.722;12.012;2023-06-22T15:12:08;5.68;;;4.20;;
19599;SDS011;9947;57.722;12.012;2023-06-22T15:14:37;8.23;;;5.10;;